KGPT/GPT METAR and TAF weather

Enter ICAO airport designator
Station Type Date Time Source
KGPT METAR 2021/09/16 22:19 UTC NOAA

KGPT 162219Z VRB06KT 10SM SCT012 BKN032 27/24 A2986 RMK AO2 T02720239


Station Type Date Time Source
KGPT Decoded METAR 2021/09/16 22:19 UTC NOAA

GULFPORT-BILOXI REG AIRPORT , MS, United States (KGPT) 30-25N 089-05W 14M
Sep 16, 2021 - 06:19 PM EDT / 2021.09.16 2219 UTC
Wind: Variable at 7 MPH (6 KT):0
Visibility: 10 mile(s):0
Sky conditions: mostly cloudy
Temperature: 81.0 F (27.2 C)
Dew Point: 75.0 F (23.9 C)
Relative Humidity: 82%
Pressure (altimeter): 29.86 in. Hg (1011 hPa)
ob: KGPT 162219Z VRB06KT 10SM SCT012 BKN032 27/24 A2986 RMK AO2 T02720239
cycle: 22

Station Type Date Time Source
KGPT TAF 2021/09/16 18:48 UTC NOAA

TAF KGPT 161747Z 1618/1718 17010G20KT P6SM VCSH FEW014 SCT030 BKN080
FM170000 17008KT P6SM +SHRA BKN025
FM170700 17007KT P6SM SCT015
FM171200 13008KT P6SM OVC025
FM171500 15012KT P6SM OVC025
TEMPO 1715/1718 4SM -TSRA BKN025CB

Example: see airport list